createdAt,value
2023-05-25T00:00:53.771Z,6.30
2023-05-25T00:03:11.256Z,6.53
2023-05-25T00:05:38.731Z,7.97
2023-05-25T00:08:07.125Z,7.55
2023-05-25T00:10:35.465Z,7.60
2023-05-25T00:13:03.034Z,7.10
2023-05-25T00:15:30.686Z,6.93
2023-05-25T00:17:58.314Z,6.70
2023-05-25T00:20:25.879Z,5.90
2023-05-25T00:22:53.466Z,7.53
2023-05-25T00:25:21.038Z,6.23
2023-05-25T00:27:48.613Z,5.93
2023-05-25T00:30:16.221Z,6.07
2023-05-25T00:32:44.640Z,5.77
2023-05-25T00:35:12.136Z,5.40
2023-05-25T00:37:39.744Z,5.37
2023-05-25T00:40:07.429Z,5.80
2023-05-25T00:42:35.023Z,5.87
2023-05-25T00:45:02.663Z,5.60
2023-05-25T00:47:30.224Z,5.50
2023-05-25T00:49:57.790Z,5.37
2023-05-25T00:52:26.130Z,5.20
2023-05-25T00:54:53.715Z,5.77
2023-05-25T00:57:22.057Z,5.37
2023-05-25T00:59:52.609Z,4.93
2023-05-25T01:02:20.245Z,5.77
2023-05-25T01:04:47.763Z,6.20
2023-05-25T01:07:16.196Z,5.87
2023-05-25T01:09:43.768Z,5.47
2023-05-25T01:12:11.342Z,5.70
2023-05-25T01:14:38.956Z,5.73
2023-05-25T01:17:06.517Z,5.83
2023-05-25T01:19:34.104Z,5.83
2023-05-25T01:22:16.714Z,5.30
2023-05-25T01:24:49.750Z,5.13
2023-05-25T01:27:22.970Z,5.23
2023-05-25T01:29:50.542Z,5.17
2023-05-25T01:32:18.249Z,5.43
2023-05-25T01:34:45.714Z,5.37
2023-05-25T01:37:13.346Z,6.00
2023-05-25T01:39:40.914Z,5.87
2023-05-25T01:42:08.525Z,5.77
2023-05-25T01:44:36.109Z,5.67
2023-05-25T01:47:03.658Z,5.70
2023-05-25T01:49:58.582Z,5.10
2023-05-25T01:52:28.568Z,5.40
2023-05-25T01:54:56.085Z,5.73
2023-05-25T01:57:23.727Z,5.27
2023-05-25T01:59:51.322Z,5.80
2023-05-25T02:02:18.896Z,5.23
2023-05-25T02:04:46.550Z,5.00
2023-05-25T02:07:14.072Z,4.80
2023-05-25T02:09:41.712Z,6.03
2023-05-25T02:12:09.320Z,5.53
2023-05-25T02:14:36.891Z,5.20
2023-05-25T02:17:04.456Z,5.03
2023-05-25T02:19:32.082Z,5.07
2023-05-25T02:21:59.648Z,5.33
2023-05-25T02:24:27.283Z,5.70
2023-05-25T02:26:54.843Z,6.78
2023-05-25T02:29:22.428Z,6.90
2023-05-25T02:31:50.112Z,5.90
2023-05-25T02:34:17.634Z,6.10
2023-05-25T02:36:45.207Z,5.67
2023-05-25T02:39:12.766Z,5.40
2023-05-25T02:41:40.389Z,5.50
2023-05-25T02:44:07.946Z,5.20
2023-05-25T02:46:35.508Z,5.37
2023-05-25T02:49:03.164Z,5.20
2023-05-25T02:51:30.705Z,5.13
2023-05-25T02:53:58.269Z,5.20
2023-05-25T02:56:25.891Z,5.17
2023-05-25T02:58:54.237Z,4.70
2023-05-25T03:01:21.873Z,5.30
2023-05-25T03:03:49.511Z,4.40
2023-05-25T03:06:17.024Z,4.80
2023-05-25T03:08:44.598Z,5.10
2023-05-25T03:11:12.263Z,4.97
2023-05-25T03:13:39.832Z,5.17
2023-05-25T03:16:07.424Z,5.73
2023-05-25T03:18:34.992Z,5.43
2023-05-25T03:21:02.593Z,5.07
2023-05-25T03:23:30.966Z,5.30
2023-05-25T03:25:58.560Z,5.10
2023-05-25T03:28:26.133Z,5.27
2023-05-25T03:30:53.699Z,5.73
2023-05-25T03:33:21.333Z,5.13
2023-05-25T03:35:48.908Z,6.62
2023-05-25T03:38:16.523Z,5.50
2023-05-25T03:40:44.113Z,5.20
2023-05-25T03:43:11.707Z,5.57
2023-05-25T03:45:39.280Z,5.10
2023-05-25T03:48:06.866Z,5.10
2023-05-25T03:50:34.435Z,5.03
2023-05-25T03:53:02.028Z,5.47
2023-05-25T03:55:30.407Z,5.57
2023-05-25T03:57:58.716Z,5.67
2023-05-25T04:00:27.184Z,5.53
2023-05-25T04:02:55.779Z,5.50
2023-05-25T04:05:23.384Z,5.67
2023-05-25T04:07:51.074Z,5.30
2023-05-25T04:10:19.695Z,5.83
2023-05-25T04:12:48.193Z,5.63
2023-05-25T04:15:15.788Z,5.57
2023-05-25T04:17:43.386Z,5.20
2023-05-25T04:20:11.001Z,5.57
2023-05-25T04:22:38.510Z,5.93
2023-05-25T04:25:08.899Z,5.50
2023-05-25T04:27:36.452Z,6.35
2023-05-25T04:30:04.027Z,5.73
2023-05-25T04:32:31.669Z,5.20
2023-05-25T04:35:00.005Z,5.00
2023-05-25T04:37:27.697Z,5.30
2023-05-25T04:39:55.195Z,4.77
2023-05-25T04:42:22.762Z,5.47
2023-05-25T04:44:50.416Z,5.20
2023-05-25T04:47:18.115Z,5.43
2023-05-25T04:49:45.681Z,5.17
2023-05-25T04:52:13.330Z,4.90
2023-05-25T04:54:41.047Z,4.43
2023-05-25T04:57:08.602Z,4.47
2023-05-25T04:59:36.169Z,6.10
2023-05-25T05:02:03.778Z,5.07
2023-05-25T05:04:31.363Z,5.13
2023-05-25T05:06:59.189Z,5.00
2023-05-25T05:09:27.392Z,5.20
2023-05-25T05:11:54.961Z,5.00
2023-05-25T05:14:22.516Z,5.40
2023-05-25T05:16:50.968Z,4.90
2023-05-25T05:19:18.515Z,5.40
2023-05-25T05:21:46.106Z,5.30
2023-05-25T05:24:13.694Z,6.17
2023-05-25T05:26:56.356Z,5.10
2023-05-25T05:29:09.634Z,5.40
2023-05-25T05:31:37.313Z,5.97
2023-05-25T05:34:04.895Z,5.27
2023-05-25T05:36:38.980Z,10.47
2023-05-25T05:39:00.014Z,5.27
2023-05-25T05:41:27.583Z,5.85
2023-05-25T05:43:55.220Z,5.60
2023-05-25T05:46:23.677Z,5.30
2023-05-25T05:48:51.251Z,5.10
2023-05-25T05:51:18.920Z,4.73
2023-05-25T05:53:46.533Z,5.13
2023-05-25T05:56:19.800Z,5.47
2023-05-25T05:58:48.156Z,5.07
2023-05-25T06:01:15.769Z,5.00
2023-05-25T06:03:43.360Z,4.80
2023-05-25T06:06:11.042Z,4.63
2023-05-25T06:08:38.583Z,4.87
2023-05-25T06:11:06.965Z,5.13
2023-05-25T06:13:34.560Z,5.23
2023-05-25T06:16:02.280Z,4.67
2023-05-25T06:18:29.783Z,4.83
2023-05-25T06:20:57.360Z,4.70
2023-05-25T06:23:24.975Z,4.73
2023-05-25T06:25:52.555Z,5.13
2023-05-25T06:28:20.182Z,4.27
2023-05-25T06:30:48.272Z,4.50
2023-05-25T06:33:15.828Z,4.90
2023-05-25T06:35:43.550Z,5.53
2023-05-25T06:38:11.774Z,5.53
2023-05-25T06:40:40.120Z,5.27
2023-05-25T06:43:07.702Z,4.90
2023-05-25T06:45:35.323Z,4.43
2023-05-25T06:48:02.927Z,4.53
2023-05-25T06:50:30.543Z,4.47
2023-05-25T06:53:00.346Z,4.63
2023-05-25T06:55:25.799Z,4.10
2023-05-25T06:57:53.392Z,4.67
2023-05-25T07:00:21.061Z,5.28
2023-05-25T07:02:48.669Z,4.30
2023-05-25T07:05:16.288Z,3.90
2023-05-25T07:07:43.888Z,4.97
2023-05-25T07:10:11.445Z,4.13
2023-05-25T07:12:39.030Z,4.70
2023-05-25T07:15:07.554Z,4.40
2023-05-25T07:17:35.129Z,3.80
2023-05-25T07:20:02.720Z,4.07
2023-05-25T07:22:30.354Z,3.90
2023-05-25T07:24:58.287Z,3.47
2023-05-25T07:27:26.625Z,3.77
2023-05-25T07:29:54.268Z,3.00
2023-05-25T07:32:21.880Z,3.80
2023-05-25T07:34:49.443Z,3.80
2023-05-25T07:37:17.062Z,3.47
2023-05-25T07:39:44.651Z,4.17
2023-05-25T07:42:12.253Z,3.70
2023-05-25T07:44:40.636Z,4.67
2023-05-25T07:47:08.239Z,3.47
2023-05-25T07:49:35.844Z,3.60
2023-05-25T07:52:03.471Z,3.47
2023-05-25T07:54:31.046Z,3.90
2023-05-25T07:56:58.625Z,3.50
2023-05-25T07:59:26.346Z,3.83
2023-05-25T08:01:53.996Z,4.03
2023-05-25T08:04:21.667Z,4.30
2023-05-25T08:06:49.228Z,4.00
2023-05-25T08:09:16.804Z,3.30
2023-05-25T08:11:44.473Z,3.63
2023-05-25T08:14:12.080Z,3.47
2023-05-25T08:16:39.673Z,3.30
2023-05-25T08:19:07.232Z,3.33
2023-05-25T08:21:37.662Z,2.90
2023-05-25T08:24:05.275Z,3.53
2023-05-25T08:26:52.345Z,3.20
2023-05-25T08:29:00.459Z,3.20
2023-05-25T08:31:28.070Z,3.47
2023-05-25T08:33:55.602Z,2.80
2023-05-25T08:36:23.234Z,3.87
2023-05-25T08:38:50.848Z,3.45
2023-05-25T08:41:19.208Z,3.10
2023-05-25T08:43:46.801Z,2.57
2023-05-25T08:46:14.389Z,2.43
2023-05-25T08:48:42.873Z,2.83
2023-05-25T08:51:11.005Z,2.80
2023-05-25T08:53:37.214Z,2.30
2023-05-25T08:56:07.885Z,2.87
2023-05-25T08:58:35.480Z,2.70
2023-05-25T09:01:03.066Z,2.60
2023-05-25T09:03:30.687Z,2.67
2023-05-25T09:05:58.285Z,2.83
2023-05-25T09:08:25.874Z,2.63
2023-05-25T09:10:53.470Z,2.27
2023-05-25T09:13:23.082Z,2.20
2023-05-25T09:15:49.460Z,2.60
2023-05-25T09:18:17.145Z,2.83
2023-05-25T09:20:47.042Z,2.60
2023-05-25T09:23:12.281Z,2.33
2023-05-25T09:25:39.883Z,2.67
2023-05-25T09:28:24.793Z,2.50
2023-05-25T09:30:35.219Z,2.50
2023-05-25T09:33:11.876Z,2.53
2023-05-25T09:35:39.429Z,2.43
2023-05-25T09:38:07.197Z,2.57
2023-05-25T09:40:34.679Z,2.40
2023-05-25T09:43:04.979Z,3.30
2023-05-25T09:45:32.603Z,2.87
2023-05-25T09:48:01.023Z,2.60
2023-05-25T09:50:29.373Z,2.73
2023-05-25T09:52:56.928Z,2.77
2023-05-25T09:55:25.328Z,3.00
2023-05-25T09:57:55.643Z,2.80
2023-05-25T10:00:23.147Z,2.40
2023-05-25T10:02:50.798Z,3.07
2023-05-25T10:07:40.683Z,2.30
2023-05-25T10:10:09.057Z,3.20
2023-05-25T10:12:37.406Z,2.70
2023-05-25T10:15:04.963Z,2.67
2023-05-25T10:17:32.605Z,2.93
2023-05-25T10:20:02.977Z,3.13
2023-05-25T10:22:33.499Z,2.97
2023-05-25T10:25:07.726Z,2.60
2023-05-25T10:27:41.965Z,2.50
2023-05-25T10:30:09.566Z,3.03
2023-05-25T10:32:40.073Z,2.63
2023-05-25T10:35:08.415Z,2.57
2023-05-25T10:37:36.000Z,3.27
2023-05-25T10:40:03.661Z,2.60
2023-05-25T10:42:31.233Z,3.30
2023-05-25T10:44:58.814Z,2.60
2023-05-25T10:47:26.518Z,2.20
2023-05-25T10:49:57.123Z,2.67
2023-05-25T10:52:30.465Z,2.57
2023-05-25T10:54:58.106Z,2.40
2023-05-25T10:57:25.602Z,2.57
2023-05-25T10:59:53.216Z,2.10
2023-05-25T11:02:23.749Z,2.47
2023-05-25T11:04:51.135Z,3.23
2023-05-25T11:07:18.756Z,3.37
2023-05-25T11:09:46.367Z,2.37
2023-05-25T11:12:22.967Z,2.10
2023-05-25T11:15:11.989Z,2.23
2023-05-25T11:17:45.637Z,2.70
2023-05-25T11:20:13.242Z,2.63
2023-05-25T11:22:40.742Z,2.80
2023-05-25T11:25:26.407Z,3.25
2023-05-25T11:27:53.983Z,2.73
2023-05-25T11:30:21.565Z,2.27
2023-05-25T11:32:50.005Z,2.47
2023-05-25T11:35:17.546Z,2.60
2023-05-25T11:37:45.143Z,2.00
2023-05-25T11:40:12.792Z,2.13
2023-05-25T11:42:40.381Z,2.13
2023-05-25T11:45:08.046Z,2.60
2023-05-25T11:47:36.013Z,2.33
2023-05-25T11:50:03.276Z,2.30
2023-05-25T11:52:30.829Z,2.47
2023-05-25T11:54:59.219Z,2.55
2023-05-25T11:57:27.552Z,2.47
2023-05-25T11:59:55.137Z,2.30
2023-05-25T12:02:23.696Z,2.57
2023-05-25T12:05:00.418Z,2.47
2023-05-25T12:07:28.039Z,2.13
2023-05-25T12:10:10.587Z,2.40
2023-05-25T12:12:44.412Z,2.50
2023-05-25T12:15:12.047Z,2.23
2023-05-25T12:17:43.225Z,2.30
2023-05-25T12:20:10.817Z,2.23
2023-05-25T12:22:38.401Z,2.30
2023-05-25T12:25:05.948Z,1.97
2023-05-25T12:27:33.575Z,2.10
2023-05-25T12:30:01.155Z,2.00
2023-05-25T12:32:28.782Z,2.03
2023-05-25T12:35:03.056Z,2.30
2023-05-25T12:37:31.402Z,1.77
2023-05-25T12:40:00.200Z,2.50
2023-05-25T12:42:26.584Z,2.13
2023-05-25T12:44:56.864Z,2.65
2023-05-25T12:47:24.434Z,2.33
2023-05-25T12:50:10.950Z,2.10
2023-05-25T12:52:39.437Z,2.23
2023-05-25T12:55:27.464Z,2.37
2023-05-25T12:57:54.892Z,1.90
2023-05-25T13:00:22.474Z,2.30
2023-05-25T13:02:50.944Z,2.22
2023-05-25T13:05:19.419Z,2.20
2023-05-25T13:07:46.902Z,2.20
2023-05-25T13:10:15.302Z,2.20
2023-05-25T13:12:43.604Z,2.00
2023-05-25T13:15:11.189Z,1.90
2023-05-25T13:17:38.839Z,2.20
2023-05-25T13:20:06.616Z,2.70
2023-05-25T13:22:34.056Z,2.50
2023-05-25T13:25:01.667Z,2.23
2023-05-25T13:27:30.028Z,2.50
2023-05-25T13:29:57.595Z,2.07
2023-05-25T13:32:26.030Z,2.40
2023-05-25T13:34:53.574Z,2.17
2023-05-25T13:37:21.159Z,1.83
2023-05-25T13:39:48.761Z,2.20
2023-05-25T13:42:16.347Z,2.17
2023-05-25T13:44:43.931Z,2.37
2023-05-25T13:47:11.630Z,2.67
2023-05-25T13:49:39.156Z,2.60
2023-05-25T13:52:06.732Z,2.43
2023-05-25T13:54:34.345Z,2.45
2023-05-25T13:57:01.934Z,2.37
2023-05-25T13:59:29.504Z,2.60
2023-05-25T14:01:57.321Z,2.60
2023-05-25T14:04:24.849Z,3.03
2023-05-25T14:06:53.191Z,2.30
2023-05-25T14:09:20.848Z,2.60
2023-05-25T14:11:48.424Z,2.40
2023-05-25T14:14:30.048Z,2.83
2023-05-25T14:16:44.439Z,2.63
2023-05-25T14:19:11.992Z,2.10
2023-05-25T14:21:39.572Z,2.57
2023-05-25T14:24:07.269Z,2.33
2023-05-25T14:26:35.612Z,2.67
2023-05-25T14:29:03.245Z,2.90
2023-05-25T14:31:30.921Z,2.47
2023-05-25T14:33:59.210Z,2.43
2023-05-25T14:36:26.789Z,2.03
2023-05-25T14:38:54.421Z,2.57
2023-05-25T14:41:22.009Z,2.67
2023-05-25T14:43:49.586Z,2.90
2023-05-25T14:46:18.030Z,2.90
2023-05-25T14:48:45.573Z,2.80
2023-05-25T14:51:13.139Z,3.00
2023-05-25T14:53:40.806Z,2.40
2023-05-25T14:56:10.484Z,2.47
2023-05-25T14:58:36.007Z,2.77
2023-05-25T15:01:04.335Z,2.30
2023-05-25T15:03:32.848Z,2.13
2023-05-25T15:06:00.281Z,2.50
2023-05-25T15:08:28.670Z,2.57
2023-05-25T15:10:57.008Z,2.10
2023-05-25T15:13:24.793Z,2.60
2023-05-25T15:15:53.189Z,2.58
2023-05-25T15:18:21.532Z,2.70
2023-05-25T15:20:49.158Z,2.60
2023-05-25T15:23:16.718Z,2.60
2023-05-25T15:25:44.324Z,2.63
2023-05-25T15:28:11.893Z,2.92
2023-05-25T15:30:40.279Z,2.10
2023-05-25T15:33:08.637Z,2.53
2023-05-25T15:35:36.204Z,2.60
2023-05-25T15:38:03.821Z,2.93
2023-05-25T15:40:31.440Z,3.10
2023-05-25T15:42:59.006Z,3.07
2023-05-25T15:45:26.640Z,3.30
2023-05-25T15:47:54.255Z,2.60
2023-05-25T15:50:21.767Z,2.33
2023-05-25T15:52:49.388Z,3.10
2023-05-25T15:55:16.966Z,3.30
2023-05-25T15:57:44.552Z,3.20
2023-05-25T16:00:13.189Z,3.15
2023-05-25T16:02:40.812Z,2.83
2023-05-25T16:05:08.376Z,3.20
2023-05-25T16:07:36.042Z,3.00
2023-05-25T16:10:03.619Z,3.63
2023-05-25T16:12:31.183Z,4.43
2023-05-25T16:14:58.822Z,4.37
2023-05-25T16:17:28.153Z,4.80
2023-05-25T16:19:55.854Z,4.20
2023-05-25T16:22:23.420Z,5.20
2023-05-25T16:24:51.770Z,4.50
2023-05-25T16:27:19.394Z,4.83
2023-05-25T16:29:47.745Z,5.40
2023-05-25T16:32:16.133Z,5.20
2023-05-25T16:34:44.486Z,4.80
2023-05-25T16:37:12.100Z,4.70
2023-05-25T16:39:39.676Z,5.47
2023-05-25T16:42:07.260Z,4.67
2023-05-25T16:44:34.873Z,5.68
2023-05-25T16:47:02.448Z,5.67
2023-05-25T16:49:30.035Z,5.63
2023-05-25T16:51:57.655Z,5.00
2023-05-25T16:54:25.236Z,4.87
2023-05-25T16:56:52.815Z,5.13
2023-05-25T16:59:20.433Z,4.67
2023-05-25T17:01:48.101Z,5.40
2023-05-25T17:04:15.593Z,5.10
2023-05-25T17:06:43.222Z,5.20
2023-05-25T17:09:10.782Z,5.60
2023-05-25T17:11:38.377Z,5.33
2023-05-25T17:14:06.005Z,4.85
2023-05-25T17:16:33.606Z,4.53
2023-05-25T17:19:01.173Z,4.83
2023-05-25T17:21:28.827Z,5.12
2023-05-25T17:23:56.399Z,4.30
2023-05-25T17:26:24.759Z,4.70
2023-05-25T17:28:52.536Z,4.43
2023-05-25T17:31:20.883Z,5.03
2023-05-25T17:33:48.445Z,4.63
2023-05-25T17:36:16.198Z,4.93
2023-05-25T17:38:43.810Z,5.07
2023-05-25T17:41:12.130Z,4.83
2023-05-25T17:43:39.762Z,5.40
2023-05-25T17:46:07.445Z,4.73
2023-05-25T17:48:34.916Z,5.43
2023-05-25T17:51:02.536Z,5.50
2023-05-25T17:53:30.135Z,5.50
2023-05-25T17:55:57.727Z,5.33
2023-05-25T17:58:25.353Z,5.63
2023-05-25T18:00:53.034Z,4.97
2023-05-25T18:03:20.627Z,4.93
2023-05-25T18:05:48.892Z,5.23
2023-05-25T18:08:17.247Z,5.37
2023-05-25T18:10:44.824Z,5.50
2023-05-25T18:13:12.456Z,5.67
2023-05-25T18:15:40.044Z,6.10
2023-05-25T18:18:07.713Z,6.28
2023-05-25T18:20:35.315Z,5.57
2023-05-25T18:23:02.842Z,5.93
2023-05-25T18:25:30.419Z,5.60
2023-05-25T18:27:58.089Z,6.13
2023-05-25T18:30:26.408Z,5.40
2023-05-25T18:32:54.067Z,6.37
2023-05-25T18:35:22.374Z,6.47
2023-05-25T18:37:50.749Z,5.70
2023-05-25T18:40:18.319Z,6.47
2023-05-25T18:42:46.714Z,5.70
2023-05-25T18:45:14.283Z,6.03
2023-05-25T18:47:41.923Z,6.33
2023-05-25T18:50:09.554Z,6.60
2023-05-25T18:52:37.127Z,6.70
2023-05-25T18:55:05.577Z,6.00
2023-05-25T18:57:33.196Z,5.97
2023-05-25T19:00:00.791Z,7.07
2023-05-25T19:02:28.430Z,5.93
2023-05-25T19:04:55.953Z,6.20
2023-05-25T19:07:24.299Z,6.80
2023-05-25T19:09:51.938Z,6.10
2023-05-25T19:12:20.303Z,5.63
2023-05-25T19:14:47.883Z,5.70
2023-05-25T19:17:15.479Z,5.60
2023-05-25T19:19:43.096Z,6.20
2023-05-25T19:22:10.677Z,5.43
2023-05-25T19:24:42.416Z,5.00
2023-05-25T19:27:06.641Z,4.90
2023-05-25T19:29:34.969Z,5.53
2023-05-25T19:32:02.631Z,5.23
2023-05-25T19:34:30.163Z,5.33
2023-05-25T19:37:10.222Z,5.40
2023-05-25T19:39:26.232Z,4.87
2023-05-25T19:41:54.404Z,5.90
2023-05-25T19:44:21.976Z,6.00
2023-05-25T19:46:49.558Z,5.00
2023-05-25T19:49:17.171Z,5.95
2023-05-25T19:51:44.745Z,6.00
2023-05-25T19:54:12.328Z,5.97
2023-05-25T19:56:40.727Z,5.83
2023-05-25T19:59:07.553Z,5.60
2023-05-25T20:01:35.165Z,5.43
2023-05-25T20:04:03.550Z,6.03
2023-05-25T20:06:31.122Z,5.43
2023-05-25T20:08:58.713Z,5.83
2023-05-25T20:11:26.321Z,5.40
2023-05-25T20:13:53.925Z,6.07
2023-05-25T20:16:21.565Z,5.97
2023-05-25T20:18:49.885Z,6.00
2023-05-25T20:21:18.231Z,6.20
2023-05-25T20:23:45.824Z,5.63
2023-05-25T20:26:13.428Z,5.63
2023-05-25T20:28:41.011Z,6.50
2023-05-25T20:31:08.590Z,6.37
2023-05-25T20:33:36.235Z,6.87
2023-05-25T20:36:03.816Z,5.80
2023-05-25T20:38:32.153Z,6.17
2023-05-25T20:40:59.866Z,6.30
2023-05-25T20:43:28.211Z,6.30
2023-05-25T20:45:55.863Z,5.70
2023-05-25T20:48:23.458Z,6.77
2023-05-25T20:50:51.787Z,6.17
2023-05-25T20:53:19.361Z,6.30
2023-05-25T20:55:47.153Z,6.40
2023-05-25T20:58:14.725Z,6.53
2023-05-25T21:00:43.067Z,5.90
2023-05-25T21:03:10.781Z,6.37
2023-05-25T21:05:38.269Z,6.30
2023-05-25T21:08:05.837Z,7.10
2023-05-25T21:10:33.474Z,6.83
2023-05-25T21:13:01.040Z,6.93
2023-05-25T21:15:28.612Z,6.97
2023-05-25T21:17:56.314Z,6.93
2023-05-25T21:20:24.736Z,6.37
2023-05-25T21:22:52.219Z,7.03
2023-05-25T21:25:20.008Z,6.53
2023-05-25T21:27:47.627Z,7.87
2023-05-25T21:30:15.934Z,8.32
2023-05-25T21:32:43.668Z,7.53
2023-05-25T21:35:11.149Z,7.27
2023-05-25T21:37:38.738Z,7.53
2023-05-25T21:40:06.463Z,7.13
2023-05-25T21:42:34.054Z,8.60
2023-05-25T21:45:02.420Z,7.70
2023-05-25T21:47:30.088Z,7.57
2023-05-25T21:49:57.611Z,7.95
2023-05-25T21:52:25.180Z,7.27
2023-05-25T21:54:52.845Z,6.73
2023-05-25T21:57:20.420Z,6.93
2023-05-25T21:59:47.981Z,6.70
2023-05-25T22:02:15.680Z,8.15
2023-05-25T22:04:43.216Z,7.37
2023-05-25T22:07:11.596Z,7.77
2023-05-25T22:09:39.339Z,6.60
2023-05-25T22:12:06.979Z,7.70
2023-05-25T22:14:34.519Z,8.00
2023-05-25T22:17:02.218Z,7.30
2023-05-25T22:19:30.483Z,6.93
2023-05-25T22:21:58.060Z,8.23
2023-05-25T22:24:25.692Z,7.07
2023-05-25T22:26:53.260Z,7.67
2023-05-25T22:29:20.855Z,7.20
2023-05-25T22:31:49.234Z,8.82
2023-05-25T22:34:17.595Z,7.30
2023-05-25T22:36:45.158Z,8.00
2023-05-25T22:39:12.771Z,7.80
2023-05-25T22:41:40.355Z,7.70
2023-05-25T22:44:07.959Z,8.07
2023-05-25T22:46:35.616Z,7.53
2023-05-25T22:49:03.156Z,7.27
2023-05-25T22:51:30.740Z,9.50
2023-05-25T22:53:59.143Z,8.17
2023-05-25T22:56:26.715Z,7.70
2023-05-25T22:58:54.280Z,8.43
2023-05-25T23:01:21.961Z,7.83
2023-05-25T23:03:49.740Z,7.87
2023-05-25T23:06:17.254Z,8.17
2023-05-25T23:08:44.891Z,7.97
2023-05-25T23:11:13.237Z,8.07
2023-05-25T23:13:40.801Z,7.93
2023-05-25T23:16:08.484Z,8.00
2023-05-25T23:18:36.033Z,7.17
2023-05-25T23:21:04.400Z,9.38
2023-05-25T23:23:32.161Z,8.98
2023-05-25T23:25:59.747Z,8.03
2023-05-25T23:28:28.139Z,7.67
2023-05-25T23:30:55.749Z,8.30
2023-05-25T23:33:23.326Z,8.85
2023-05-25T23:35:51.680Z,8.80
2023-05-25T23:38:19.303Z,7.60
2023-05-25T23:40:46.902Z,7.70
2023-05-25T23:43:14.460Z,8.20
2023-05-25T23:45:42.133Z,8.30
2023-05-25T23:48:09.719Z,7.20
2023-05-25T23:50:37.279Z,8.10
2023-05-25T23:53:04.863Z,7.77
2023-05-25T23:55:32.429Z,7.67
2023-05-25T23:58:00.044Z,8.00
